Time;durP1;ratioP1;P1;durP2;ratioP2;P2;SDS_P1;SDS_P2;PMS_P1;PMS_P2;Temp;Humidity;BMP_temperature;BMP_pressure;BME280_temperature;BME280_humidity;BME280_pressure;Samples;Min_cycle;Max_cycle;Signal;HPM_P1;HPM_P2
2022/10/27 00:01:37;;;;;;;21.20;10.73;;;12.40;99.90;;;;;;5121678;27;20444;-51
2022/10/27 00:04:02;;;;;;;17.90;10.70;;;12.50;99.90;;;;;;5139944;27;20077;-46
2022/10/27 00:06:28;;;;;;;17.13;11.02;;;12.50;99.90;;;;;;5127856;27;20066;-49
2022/10/27 00:08:54;;;;;;;19.55;11.75;;;12.50;99.90;;;;;;5129068;27;20400;-52
2022/10/27 00:11:19;;;;;;;21.50;12.00;;;12.30;99.90;;;;;;5140490;27;20373;-50
2022/10/27 00:13:45;;;;;;;17.00;11.00;;;12.40;99.90;;;;;;5139666;27;20038;-53
2022/10/27 00:16:14;;;;;;;23.27;12.30;;;12.40;99.90;;;;;;5139980;27;20064;-52
2022/10/27 00:18:41;;;;;;;16.83;12.23;;;12.30;99.90;;;;;;5138784;27;20039;-47
2022/10/27 00:21:09;;;;;;;23.30;12.25;;;12.30;99.90;;;;;;5140653;27;20142;-56
2022/10/27 00:23:36;;;;;;;19.08;11.82;;;12.30;99.90;;;;;;5140078;27;20111;-47
2022/10/27 00:26:03;;;;;;;17.10;13.05;;;12.20;99.90;;;;;;5140494;27;20047;-44
2022/10/27 00:28:30;;;;;;;18.48;13.35;;;12.20;99.90;;;;;;5139513;27;20038;-49
2022/10/27 00:30:57;;;;;;;20.58;13.30;;;12.20;99.90;;;;;;5140513;27;20404;-53
2022/10/27 00:33:23;;;;;;;19.67;13.45;;;12.20;99.90;;;;;;5139203;27;20150;-49
2022/10/27 00:35:48;;;;;;;23.98;14.15;;;12.10;99.90;;;;;;5121121;27;20055;-54
2022/10/27 00:38:14;;;;;;;20.92;13.98;;;12.20;99.90;;;;;;5120451;27;20047;-55
2022/10/27 00:40:40;;;;;;;20.23;14.52;;;12.10;99.90;;;;;;5139769;27;20122;-45
2022/10/27 00:43:29;;;;;;;19.08;14.77;;;12.10;99.90;;;;;;5139346;27;20381;-50
2022/10/27 00:46:01;;;;;;;20.40;15.52;;;12.10;99.90;;;;;;5139176;27;20486;-49
2022/10/27 00:48:29;;;;;;;22.88;15.93;;;12.10;99.90;;;;;;5138859;27;20514;-51
2022/10/27 00:50:55;;;;;;;24.33;15.40;;;12.20;99.90;;;;;;5104064;27;20432;-44
2022/10/27 00:53:21;;;;;;;23.00;15.90;;;12.20;99.90;;;;;;5139394;27;20049;-50
2022/10/27 00:55:46;;;;;;;23.45;15.93;;;12.20;99.90;;;;;;5140006;27;20396;-54
2022/10/27 00:58:17;;;;;;;25.05;16.38;;;12.30;99.90;;;;;;5138908;27;20070;-46
2022/10/27 01:00:43;;;;;;;24.13;17.35;;;12.30;99.90;;;;;;5139606;27;20418;-45
2022/10/27 01:03:11;;;;;;;22.00;16.88;;;12.50;99.90;;;;;;5139274;27;20414;-49
2022/10/27 01:05:39;;;;;;;26.65;17.90;;;12.40;99.90;;;;;;5125634;27;20247;-55
2022/10/27 01:08:06;;;;;;;22.58;18.33;;;12.50;99.90;;;;;;5086540;27;20055;-47
2022/10/27 01:10:32;;;;;;;26.77;18.27;;;12.60;99.90;;;;;;5133630;27;20124;-52
2022/10/27 01:12:59;;;;;;;25.63;17.67;;;12.60;99.90;;;;;;5139548;27;20050;-52
2022/10/27 01:15:50;;;;;;;30.83;18.17;;;12.60;99.90;;;;;;5140268;27;20042;-50
2022/10/27 01:18:26;;;;;;;23.05;16.80;;;12.60;99.90;;;;;;5139406;27;20078;-47
2022/10/27 01:21:37;;;;;;;20.77;16.88;;;12.70;99.90;;;;;;5139368;27;20039;-45
2022/10/27 01:24:14;;;;;;;24.98;18.00;;;12.70;99.90;;;;;;5120505;27;20061;-47
2022/10/27 01:26:43;;;;;;;28.13;17.02;;;12.70;99.90;;;;;;5139962;27;20050;-44
2022/10/27 01:29:35;;;;;;;23.98;16.83;;;12.80;99.90;;;;;;5138838;27;20042;-50
2022/10/27 01:32:19;;;;;;;27.15;16.27;;;12.70;99.90;;;;;;5102132;27;20095;-49
2022/10/27 01:35:07;;;;;;;29.42;15.90;;;12.80;99.90;;;;;;5138580;27;20039;-45
2022/10/27 01:37:52;;;;;;;20.75;16.65;;;12.70;99.90;;;;;;5139070;27;20043;-51
2022/10/27 01:40:41;;;;;;;26.42;16.65;;;12.70;99.90;;;;;;5103032;27;20231;-48
2022/10/27 01:43:16;;;;;;;23.00;16.48;;;12.70;99.90;;;;;;5033268;28;20060;-56
2022/10/27 01:45:43;;;;;;;20.42;16.08;;;12.70;99.90;;;;;;5034586;28;20473;-51
2022/10/27 01:48:10;;;;;;;25.35;17.67;;;12.60;99.90;;;;;;5033189;28;20067;-52
2022/10/27 01:50:38;;;;;;;26.10;16.70;;;12.60;99.90;;;;;;5017646;28;20580;-44
2022/10/27 01:53:04;;;;;;;22.67;16.65;;;12.50;99.90;;;;;;5033894;28;20455;-46
2022/10/27 01:55:57;;;;;;;22.88;17.95;;;12.50;99.90;;;;;;5033524;28;20072;-51
2022/10/27 01:58:41;;;;;;;25.92;18.45;;;12.50;99.90;;;;;;5016627;28;20048;-54
2022/10/27 02:01:31;;;;;;;25.77;18.20;;;12.50;99.90;;;;;;5031910;28;20195;-45
2022/10/27 02:04:11;;;;;;;25.05;17.80;;;12.60;99.90;;;;;;5032547;28;20512;-46
2022/10/27 02:06:45;;;;;;;27.25;17.73;;;12.40;99.90;;;;;;5020363;28;20242;-54
2022/10/27 02:09:20;;;;;;;27.60;18.38;;;12.50;99.90;;;;;;5032660;28;20067;-52
2022/10/27 02:11:51;;;;;;;27.35;17.85;;;12.60;99.90;;;;;;5033153;28;20119;-51
2022/10/27 02:14:17;;;;;;;28.08;18.27;;;12.60;99.90;;;;;;4999546;28;20045;-46
2022/10/27 02:16:48;;;;;;;24.92;18.00;;;12.50;99.90;;;;;;5033131;28;20053;-55
2022/10/27 02:19:35;;;;;;;27.63;17.17;;;12.50;99.90;;;;;;5037993;27;20134;-54
2022/10/27 02:22:03;;;;;;;22.75;17.20;;;12.60;99.90;;;;;;5132459;27;20125;-48
2022/10/27 02:24:30;;;;;;;23.85;16.98;;;12.60;99.90;;;;;;5101312;27;20047;-48
2022/10/27 02:27:16;;;;;;;23.85;16.83;;;12.70;99.90;;;;;;5137039;27;20123;-51
2022/10/27 02:29:50;;;;;;;28.20;17.08;;;12.80;99.90;;;;;;5137386;27;20080;-47
2022/10/27 02:32:21;;;;;;;24.90;16.38;;;12.70;99.90;;;;;;5137839;27;20039;-46
2022/10/27 02:34:49;;;;;;;25.63;17.08;;;12.70;99.90;;;;;;5137538;27;20046;-48
2022/10/27 02:37:30;;;;;;;26.05;17.52;;;12.90;99.90;;;;;;5137785;27;20652;-49
2022/10/27 02:39:56;;;;;;;22.20;16.05;;;12.90;99.90;;;;;;5138383;27;20042;-51
2022/10/27 02:42:21;;;;;;;24.95;16.48;;;12.80;99.90;;;;;;5137648;27;20563;-47
2022/10/27 02:44:47;;;;;;;21.98;15.82;;;12.90;99.90;;;;;;5137321;27;20057;-44
2022/10/27 02:47:12;;;;;;;20.40;16.13;;;12.80;99.90;;;;;;5137454;27;20479;-45
2022/10/27 02:49:38;;;;;;;20.17;15.07;;;12.90;99.90;;;;;;5137213;27;20054;-51
2022/10/27 02:52:04;;;;;;;18.20;15.52;;;12.80;99.90;;;;;;5138102;27;20039;-49
2022/10/27 02:54:30;;;;;;;24.00;15.40;;;12.80;99.90;;;;;;5136763;27;20054;-49
2022/10/27 02:56:57;;;;;;;18.27;14.05;;;12.90;99.90;;;;;;5118939;27;20050;-51
2022/10/27 02:59:22;;;;;;;17.10;14.18;;;12.80;99.90;;;;;;5136977;27;20047;-45
2022/10/27 03:01:48;;;;;;;22.52;14.20;;;12.90;99.90;;;;;;5137299;27;20065;-54
2022/10/27 03:04:13;;;;;;;24.48;14.27;;;12.80;99.90;;;;;;5134709;27;20388;-52
2022/10/27 03:06:39;;;;;;;16.98;13.85;;;12.90;99.90;;;;;;5125305;27;20399;-52
2022/10/27 03:09:05;;;;;;;19.83;14.30;;;12.80;99.90;;;;;;5125728;27;20035;-47
2022/10/27 03:11:31;;;;;;;19.67;14.02;;;12.80;99.90;;;;;;5136348;27;20520;-48
2022/10/27 03:13:56;;;;;;;18.25;13.93;;;12.70;99.90;;;;;;5136384;27;20111;-50
2022/10/27 03:16:22;;;;;;;20.05;15.20;;;12.90;99.90;;;;;;5136988;27;20043;-51
2022/10/27 03:18:48;;;;;;;19.85;14.70;;;12.80;99.90;;;;;;5135675;27;20570;-55
2022/10/27 03:21:14;;;;;;;22.38;14.52;;;12.90;99.90;;;;;;5136464;27;20684;-55
2022/10/27 03:23:39;;;;;;;19.48;14.05;;;12.80;99.90;;;;;;5136386;27;20046;-50
2022/10/27 03:26:06;;;;;;;24.85;14.10;;;12.90;99.90;;;;;;5137239;27;20070;-47
2022/10/27 03:28:34;;;;;;;22.63;13.65;;;12.90;99.90;;;;;;5135877;27;20079;-51
2022/10/27 03:31:08;;;;;;;20.25;14.52;;;12.90;99.90;;;;;;5101099;27;20050;-49
2022/10/27 03:33:34;;;;;;;18.60;13.75;;;12.80;99.90;;;;;;5136705;27;20046;-50
2022/10/27 03:36:00;;;;;;;25.60;14.57;;;13.00;99.90;;;;;;5136467;27;20051;-44
2022/10/27 03:38:25;;;;;;;21.83;13.75;;;12.90;99.90;;;;;;5135781;27;20038;-49
2022/10/27 03:40:51;;;;;;;21.27;13.05;;;13.00;99.90;;;;;;5136465;27;20261;-47
2022/10/27 03:43:17;;;;;;;23.02;14.35;;;12.90;99.90;;;;;;5136401;27;20068;-53
2022/10/27 03:45:46;;;;;;;19.40;13.45;;;12.90;99.90;;;;;;5137512;27;20049;-48
2022/10/27 03:48:12;;;;;;;22.80;13.35;;;12.90;99.90;;;;;;5117282;27;20510;-52
2022/10/27 03:50:38;;;;;;;20.27;13.35;;;12.90;99.90;;;;;;5136932;27;20050;-56
2022/10/27 03:53:04;;;;;;;22.77;14.55;;;12.80;99.90;;;;;;5136548;27;20122;-55
2022/10/27 03:55:31;;;;;;;23.02;13.52;;;12.70;99.90;;;;;;5136252;27;20175;-45
2022/10/27 03:57:57;;;;;;;20.42;13.55;;;12.80;99.90;;;;;;5117706;27;20038;-49
2022/10/27 04:00:23;;;;;;;20.02;14.15;;;12.80;99.90;;;;;;5136011;27;20110;-51
2022/10/27 04:02:53;;;;;;;19.63;13.00;;;12.80;99.90;;;;;;5134315;27;20044;-54
2022/10/27 04:05:19;;;;;;;18.52;13.13;;;12.80;99.90;;;;;;5105217;28;20299;-53
2022/10/27 04:07:45;;;;;;;17.60;12.82;;;12.60;99.90;;;;;;5131729;27;20042;-46
2022/10/27 04:10:11;;;;;;;20.60;12.77;;;12.70;99.90;;;;;;5127484;27;20042;-49
2022/10/27 04:12:37;;;;;;;17.85;12.85;;;12.70;99.90;;;;;;5136397;27;20037;-46
2022/10/27 04:15:04;;;;;;;20.50;13.50;;;12.60;99.90;;;;;;5118195;27;20562;-50
2022/10/27 04:17:29;;;;;;;19.75;12.65;;;12.50;99.90;;;;;;5117177;27;20042;-53
2022/10/27 04:19:55;;;;;;;19.92;12.65;;;12.50;99.90;;;;;;5136663;27;20046;-48
2022/10/27 04:22:20;;;;;;;14.65;11.65;;;12.40;99.90;;;;;;5135908;27;20462;-52
2022/10/27 04:24:46;;;;;;;20.58;12.77;;;12.30;99.90;;;;;;5136346;27;20042;-44
2022/10/27 04:27:12;;;;;;;17.45;13.32;;;12.40;99.90;;;;;;5136030;27;20403;-50
2022/10/27 04:29:37;;;;;;;22.73;13.80;;;12.40;99.90;;;;;;5136546;27;20520;-53
2022/10/27 04:32:03;;;;;;;20.17;12.70;;;12.30;99.90;;;;;;5136119;27;20628;-53
2022/10/27 04:34:29;;;;;;;18.95;13.57;;;12.20;99.90;;;;;;5135871;27;20046;-53
2022/10/27 04:36:54;;;;;;;24.15;14.20;;;12.20;99.90;;;;;;5135527;27;20038;-55
2022/10/27 04:39:20;;;;;;;21.42;13.38;;;12.30;99.90;;;;;;5136839;27;20031;-52
2022/10/27 04:41:46;;;;;;;23.23;14.68;;;12.20;99.90;;;;;;5138317;27;20050;-44
2022/10/27 04:44:11;;;;;;;20.83;14.10;;;12.30;99.90;;;;;;5140355;27;20137;-46
2022/10/27 04:46:38;;;;;;;23.25;14.70;;;12.20;99.90;;;;;;5140955;27;20120;-56
2022/10/27 04:49:03;;;;;;;23.73;14.07;;;12.20;99.90;;;;;;5141210;27;20221;-50
2022/10/27 04:51:29;;;;;;;19.70;13.85;;;12.30;99.90;;;;;;5121302;27;20046;-55
2022/10/27 04:53:55;;;;;;;22.20;13.60;;;12.20;99.90;;;;;;5139754;27;20069;-53
2022/10/27 04:56:20;;;;;;;21.67;13.98;;;12.30;99.90;;;;;;5140023;27;20364;-51
2022/10/27 04:58:46;;;;;;;19.05;13.57;;;12.30;99.90;;;;;;5139211;27;20078;-45
2022/10/27 05:01:12;;;;;;;23.65;15.27;;;12.30;99.90;;;;;;5139737;27;20038;-45
2022/10/27 05:03:39;;;;;;;28.00;15.70;;;12.50;99.90;;;;;;5120371;27;20049;-51
2022/10/27 05:06:05;;;;;;;20.25;13.88;;;12.50;99.90;;;;;;5107395;27;20183;-53
2022/10/27 05:08:31;;;;;;;20.38;13.90;;;12.40;99.90;;;;;;5111360;27;20053;-52
2022/10/27 05:10:57;;;;;;;22.60;14.10;;;12.40;99.90;;;;;;5136341;27;20043;-43
2022/10/27 05:13:22;;;;;;;22.20;13.77;;;12.40;99.90;;;;;;5138514;27;20070;-44
2022/10/27 05:15:48;;;;;;;22.67;15.40;;;12.50;99.90;;;;;;5139145;27;20376;-51
2022/10/27 05:18:14;;;;;;;20.05;14.32;;;12.40;99.90;;;;;;5139119;27;20127;-53
2022/10/27 05:20:40;;;;;;;22.02;15.18;;;12.40;99.90;;;;;;5139239;27;20572;-55
2022/10/27 05:23:06;;;;;;;20.25;14.02;;;12.60;99.90;;;;;;5139753;27;20825;-49
2022/10/27 05:25:31;;;;;;;23.80;14.80;;;12.60;99.90;;;;;;5121377;27;20043;-49
2022/10/27 05:28:08;;;;;;;20.10;13.73;;;12.60;99.90;;;;;;5138691;27;20120;-48
2022/10/27 05:30:34;;;;;;;27.50;15.85;;;12.70;99.90;;;;;;5139812;27;20061;-52
2022/10/27 05:33:00;;;;;;;19.65;15.93;;;12.60;99.90;;;;;;5138609;27;20428;-47
2022/10/27 05:35:26;;;;;;;21.50;15.02;;;12.70;99.90;;;;;;5119601;27;20057;-48
2022/10/27 05:37:52;;;;;;;24.73;16.52;;;12.80;99.90;;;;;;5137922;27;20039;-45
2022/10/27 05:40:18;;;;;;;23.13;14.48;;;12.70;99.90;;;;;;5138433;27;20051;-47
2022/10/27 05:42:54;;;;;;;20.27;15.35;;;12.80;99.90;;;;;;5138256;27;20046;-52
2022/10/27 05:45:22;;;;;;;20.30;14.45;;;12.70;99.90;;;;;;5125991;27;20047;-52
2022/10/27 05:47:48;;;;;;;20.48;15.55;;;12.80;99.90;;;;;;5137623;27;20038;-47
2022/10/27 05:50:14;;;;;;;22.00;15.45;;;12.80;99.90;;;;;;5138590;27;20050;-55
2022/10/27 05:52:40;;;;;;;17.35;13.55;;;12.70;99.90;;;;;;5137867;27;20066;-50
2022/10/27 05:55:06;;;;;;;19.30;15.35;;;12.80;99.90;;;;;;5119902;27;20055;-54
2022/10/27 05:57:31;;;;;;;24.85;15.15;;;12.80;99.90;;;;;;5119637;27;20043;-49
2022/10/27 05:59:57;;;;;;;26.92;16.80;;;12.80;99.90;;;;;;5121026;27;20039;-51
2022/10/27 06:02:22;;;;;;;21.52;15.05;;;12.80;99.90;;;;;;5137987;27;20098;-44
2022/10/27 06:04:48;;;;;;;23.02;14.48;;;12.90;99.90;;;;;;5131832;27;20035;-52
2022/10/27 06:07:14;;;;;;;23.27;15.63;;;12.90;99.90;;;;;;5113817;27;20046;-52
2022/10/27 06:09:39;;;;;;;23.30;15.02;;;12.90;99.90;;;;;;5127657;27;20051;-51
2022/10/27 06:12:05;;;;;;;23.77;14.65;;;12.70;99.90;;;;;;5138931;27;20116;-50
2022/10/27 06:14:30;;;;;;;23.00;15.70;;;12.80;99.90;;;;;;5138099;27;20043;-53
2022/10/27 06:16:56;;;;;;;21.20;14.43;;;12.80;99.90;;;;;;5119338;27;20515;-52
2022/10/27 06:19:22;;;;;;;23.90;16.20;;;12.80;99.90;;;;;;5138135;27;20099;-49
2022/10/27 06:21:47;;;;;;;18.77;14.57;;;12.70;99.90;;;;;;5138276;27;20046;-52
2022/10/27 06:24:13;;;;;;;19.15;14.77;;;12.70;99.90;;;;;;5139318;27;20107;-46
2022/10/27 06:26:39;;;;;;;22.88;14.80;;;12.70;99.90;;;;;;5137959;27;20114;-45
2022/10/27 06:29:04;;;;;;;21.55;14.35;;;12.60;99.90;;;;;;5138118;27;20421;-50
2022/10/27 06:31:30;;;;;;;25.00;16.23;;;12.60;99.90;;;;;;5137690;27;20065;-49
2022/10/27 06:33:55;;;;;;;19.35;15.23;;;12.60;99.90;;;;;;5137651;27;20046;-45
2022/10/27 06:36:21;;;;;;;20.20;16.23;;;12.60;99.90;;;;;;5136443;27;20046;-52
2022/10/27 06:38:47;;;;;;;19.90;16.48;;;12.60;99.90;;;;;;5117623;27;20095;-44
2022/10/27 06:41:12;;;;;;;20.15;16.15;;;12.60;99.90;;;;;;5137439;27;20227;-48
2022/10/27 06:43:38;;;;;;;18.25;15.55;;;12.60;99.90;;;;;;5118090;27;20039;-55
2022/10/27 06:46:04;;;;;;;19.58;14.75;;;12.60;99.90;;;;;;5137036;27;20559;-48
2022/10/27 06:48:29;;;;;;;21.30;16.83;;;12.60;99.90;;;;;;5135879;27;20043;-48
2022/10/27 06:50:55;;;;;;;22.23;15.75;;;12.70;99.90;;;;;;5118093;27;20043;-49
2022/10/27 06:53:21;;;;;;;22.27;15.45;;;12.60;99.90;;;;;;5136263;27;20138;-51
2022/10/27 06:55:46;;;;;;;18.08;15.70;;;12.70;99.90;;;;;;5136875;27;20039;-52
2022/10/27 06:58:12;;;;;;;20.95;16.13;;;12.70;99.90;;;;;;5136253;27;20352;-45
2022/10/27 07:00:38;;;;;;;20.83;15.68;;;12.80;99.90;;;;;;5136780;27;20069;-52
2022/10/27 07:03:09;;;;;;;20.55;15.50;;;12.80;99.90;;;;;;5136211;27;20368;-50
2022/10/27 07:05:35;;;;;;;23.17;15.50;;;12.80;99.90;;;;;;5116222;27;20057;-52
2022/10/27 07:08:01;;;;;;;19.85;15.23;;;12.90;99.90;;;;;;5133979;27;20407;-51
2022/10/27 07:10:27;;;;;;;21.85;15.45;;;13.00;99.90;;;;;;5136551;27;20062;-53
2022/10/27 07:13:00;;;;;;;19.63;14.38;;;13.00;99.90;;;;;;5135885;27;20031;-44
2022/10/27 07:15:31;;;;;;;18.95;14.77;;;13.10;99.90;;;;;;5131463;27;20077;-53
2022/10/27 07:18:02;;;;;;;16.67;12.85;;;13.00;99.90;;;;;;5116283;27;20043;-47
2022/10/27 07:20:29;;;;;;;18.75;13.00;;;13.00;99.90;;;;;;5096515;27;20074;-46
2022/10/27 07:22:57;;;;;;;18.27;12.70;;;13.00;99.90;;;;;;5106467;27;20098;-52
2022/10/27 07:25:23;;;;;;;17.33;12.63;;;13.10;99.90;;;;;;5114590;27;20041;-44
2022/10/27 07:27:52;;;;;;;16.10;11.18;;;13.10;99.90;;;;;;5118361;27;20027;-47
2022/10/27 07:30:23;;;;;;;18.73;12.10;;;13.30;99.90;;;;;;5120259;27;20181;-45
2022/10/27 07:32:49;;;;;;;15.75;11.68;;;13.20;99.90;;;;;;5134217;27;20587;-49
2022/10/27 07:35:15;;;;;;;16.58;10.25;;;13.30;99.90;;;;;;5134541;27;20038;-51
2022/10/27 07:37:45;;;;;;;18.25;10.13;;;13.30;99.90;;;;;;5136319;27;20054;-49
2022/10/27 07:40:12;;;;;;;14.05;10.38;;;13.40;99.90;;;;;;5136775;27;20079;-47
2022/10/27 07:42:48;;;;;;;15.05;9.35;;;13.50;99.90;;;;;;5135938;27;20042;-53
2022/10/27 07:45:16;;;;;;;14.13;8.80;;;13.50;99.90;;;;;;5136885;27;20391;-53
2022/10/27 07:47:44;;;;;;;14.13;8.80;;;13.50;99.90;;;;;;5129803;27;20123;-52
2022/10/27 07:50:10;;;;;;;11.13;8.82;;;13.60;99.90;;;;;;5136583;27;20107;-52
2022/10/27 07:52:46;;;;;;;12.55;8.85;;;13.70;99.90;;;;;;5119241;27;20035;-50
2022/10/27 07:55:14;;;;;;;13.20;8.38;;;13.80;99.90;;;;;;5118377;27;20074;-57
2022/10/27 07:57:41;;;;;;;9.65;8.38;;;13.70;99.90;;;;;;5118229;27;20043;-51
2022/10/27 08:00:15;;;;;;;14.07;8.25;;;13.80;99.90;;;;;;5119276;27;20063;-44
2022/10/27 08:02:41;;;;;;;12.80;7.90;;;13.90;99.90;;;;;;5098790;27;20145;-47
2022/10/27 08:05:07;;;;;;;14.63;8.60;;;13.90;99.90;;;;;;5116608;27;20150;-57
2022/10/27 08:07:34;;;;;;;11.73;7.82;;;14.00;99.90;;;;;;5100739;27;20043;-48
2022/10/27 08:09:59;;;;;;;15.07;8.10;;;14.00;99.90;;;;;;5116875;27;20035;-49
2022/10/27 08:12:25;;;;;;;12.18;8.00;;;14.00;99.90;;;;;;5121989;27;20100;-48
2022/10/27 08:14:51;;;;;;;10.90;7.40;;;14.00;99.90;;;;;;5099392;27;20480;-53
2022/10/27 08:17:16;;;;;;;15.57;8.10;;;14.00;99.90;;;;;;5104311;27;20046;-46
2022/10/27 08:19:42;;;;;;;10.88;8.02;;;14.00;99.90;;;;;;5120740;27;20134;-44
2022/10/27 08:22:08;;;;;;;9.65;7.93;;;14.10;99.90;;;;;;5103450;27;20070;-52
2022/10/27 08:24:33;;;;;;;10.25;8.15;;;14.10;99.90;;;;;;5119790;27;20534;-51
2022/10/27 08:26:59;;;;;;;12.02;6.82;;;14.10;99.90;;;;;;5139570;27;20118;-52
2022/10/27 08:29:25;;;;;;;12.55;8.65;;;14.20;99.90;;;;;;5139541;27;20129;-45
2022/10/27 08:31:52;;;;;;;11.52;7.50;;;14.30;99.90;;;;;;5140093;27;20050;-54
2022/10/27 08:34:17;;;;;;;13.25;8.02;;;14.40;99.90;;;;;;5140106;27;20042;-51
2022/10/27 08:36:43;;;;;;;14.25;7.95;;;14.40;99.90;;;;;;5139300;27;20503;-55
2022/10/27 08:39:10;;;;;;;13.70;8.02;;;14.50;99.90;;;;;;5140669;27;20106;-44
2022/10/27 08:41:46;;;;;;;12.38;7.70;;;14.60;99.90;;;;;;5140106;27;20039;-48
2022/10/27 08:44:29;;;;;;;11.80;6.72;;;14.70;99.90;;;;;;5139660;27;20043;-47
2022/10/27 08:47:03;;;;;;;12.00;6.72;;;14.80;99.90;;;;;;5139744;27;20039;-44
2022/10/27 08:49:42;;;;;;;12.52;5.72;;;14.90;99.90;;;;;;5139956;27;20095;-51
2022/10/27 08:52:23;;;;;;;11.18;5.82;;;14.90;99.90;;;;;;5139327;27;20057;-53
2022/10/27 08:54:53;;;;;;;9.95;6.28;;;14.90;99.90;;;;;;5138797;27;20054;-52
2022/10/27 08:57:28;;;;;;;11.85;6.13;;;15.00;99.90;;;;;;5139207;27;20042;-53
2022/10/27 08:59:55;;;;;;;9.13;5.72;;;15.00;99.90;;;;;;5137700;27;20043;-52
2022/10/27 09:02:24;;;;;;;8.75;5.60;;;15.00;99.90;;;;;;5138063;27;20432;-48
2022/10/27 09:05:10;;;;;;;11.85;5.85;;;15.10;99.90;;;;;;5131027;27;20492;-45
2022/10/27 09:07:55;;;;;;;10.07;5.72;;;15.20;99.90;;;;;;5135568;27;20054;-46
2022/10/27 09:10:41;;;;;;;13.30;6.05;;;15.20;99.90;;;;;;5132043;27;20425;-48
2022/10/27 09:13:33;;;;;;;10.40;5.85;;;15.30;99.90;;;;;;5139449;27;20039;-47
2022/10/27 09:16:03;;;;;;;10.15;6.22;;;15.40;99.90;;;;;;5139761;27;20051;-53
2022/10/27 09:18:36;;;;;;;6.60;4.43;;;15.50;99.90;;;;;;5139249;27;20422;-48
2022/10/27 09:21:11;;;;;;;10.45;5.82;;;15.60;99.90;;;;;;5126526;27;20042;-45
2022/10/27 09:23:59;;;;;;;9.98;5.53;;;15.70;99.90;;;;;;5138991;27;20166;-53
2022/10/27 09:26:31;;;;;;;11.18;5.72;;;15.70;99.90;;;;;;5120417;27;20093;-53
2022/10/27 09:29:01;;;;;;;9.73;5.63;;;15.80;99.90;;;;;;5138416;27;20054;-49
2022/10/27 09:31:39;;;;;;;9.68;5.47;;;15.90;99.90;;;;;;5121163;27;20043;-43
2022/10/27 09:34:23;;;;;;;11.30;5.57;;;16.00;99.90;;;;;;5126984;27;20043;-51
2022/10/27 09:36:49;;;;;;;10.63;5.85;;;16.00;99.90;;;;;;5120100;27;20099;-54
2022/10/27 09:39:14;;;;;;;10.27;5.63;;;16.10;99.90;;;;;;5138639;27;20382;-53
2022/10/27 09:41:40;;;;;;;9.02;5.10;;;16.10;99.90;;;;;;5139637;27;20044;-50
2022/10/27 09:44:18;;;;;;;10.40;5.72;;;16.10;99.90;;;;;;5139360;27;20122;-47
2022/10/27 09:46:49;;;;;;;10.35;5.45;;;16.10;99.90;;;;;;5138888;27;20056;-57
2022/10/27 09:49:17;;;;;;;11.00;5.25;;;16.20;99.90;;;;;;5139755;27;20047;-49
2022/10/27 09:51:49;;;;;;;9.23;5.07;;;16.20;99.90;;;;;;5138112;27;20031;-44
2022/10/27 09:54:32;;;;;;;8.15;4.82;;;16.30;99.90;;;;;;5119204;27;20039;-55
2022/10/27 09:57:18;;;;;;;7.10;4.60;;;16.30;99.90;;;;;;5127596;27;20478;-48
2022/10/27 09:59:51;;;;;;;10.90;5.18;;;16.40;99.90;;;;;;5138602;27;20154;-48
2022/10/27 10:02:24;;;;;;;;;;;16.50;99.90;;;;;;5138348;27;20038;-44
2022/10/27 10:04:50;;;;;;;;;;;16.60;99.90;;;;;;5119378;27;19919;-50
2022/10/27 10:07:39;;;;;;;10.55;5.18;;;16.60;99.90;;;;;;5131157;27;20417;-50
2022/10/27 10:10:18;;;;;;;12.13;5.30;;;16.70;99.90;;;;;;5128785;27;20129;-51
2022/10/27 10:12:44;;;;;;;10.85;5.07;;;16.70;99.90;;;;;;5137711;27;20088;-54
2022/10/27 10:15:09;;;;;;;12.70;5.07;;;16.70;99.90;;;;;;5138689;27;20579;-53
2022/10/27 10:17:40;;;;;;;11.05;5.03;;;16.70;99.90;;;;;;5137757;27;20103;-50
2022/10/27 10:20:22;;;;;;;9.68;4.72;;;16.80;99.90;;;;;;5138944;27;20042;-51
2022/10/27 10:22:49;;;;;;;12.98;4.72;;;16.90;99.90;;;;;;5137955;27;20069;-46
2022/10/27 10:25:19;;;;;;;10.52;4.60;;;16.90;99.90;;;;;;5119891;27;20051;-47
2022/10/27 10:27:54;;;;;;;9.52;4.93;;;16.90;99.90;;;;;;5120066;27;20154;-56
2022/10/27 10:30:20;;;;;;;8.20;4.43;;;17.00;99.90;;;;;;5138260;27;20035;-56
2022/10/27 10:32:52;;;;;;;9.32;4.68;;;17.00;99.90;;;;;;5119489;27;20039;-51
2022/10/27 10:35:43;;;;;;;10.63;4.40;;;17.10;99.90;;;;;;5137197;27;20054;-54
2022/10/27 10:38:38;;;;;;;10.45;4.25;;;17.20;99.90;;;;;;5137575;27;20179;-45
2022/10/27 10:41:09;;;;;;;10.80;4.50;;;17.30;99.90;;;;;;5117463;27;20055;-48
2022/10/27 10:43:35;;;;;;;8.93;4.10;;;17.30;99.90;;;;;;5134455;27;20874;-52
2022/10/27 10:46:01;;;;;;;10.20;3.92;;;17.40;99.90;;;;;;5140509;27;20042;-53
2022/10/27 10:48:39;;;;;;;8.75;4.22;;;17.40;99.90;;;;;;5116309;27;20579;-45
2022/10/27 10:51:07;;;;;;;8.00;4.05;;;17.50;99.90;;;;;;5119405;27;20510;-47
2022/10/27 10:53:41;;;;;;;8.98;4.32;;;17.50;99.90;;;;;;5118492;27;20074;-44
2022/10/27 10:56:25;;;;;;;9.60;4.07;;;17.50;99.90;;;;;;5137003;27;20365;-57
2022/10/27 10:59:02;;;;;;;9.85;3.67;;;17.50;99.90;;;;;;5137398;27;20054;-52
2022/10/27 11:02:01;;;;;;;7.72;3.58;;;17.50;99.90;;;;;;5118641;27;20119;-45
2022/10/27 11:04:37;;;;;;;9.02;3.97;;;17.50;99.90;;;;;;5132456;27;20050;-48
2022/10/27 11:07:04;;;;;;;9.88;3.30;;;17.60;99.90;;;;;;5128248;27;20050;-49
2022/10/27 11:09:45;;;;;;;5.88;3.75;;;17.70;99.90;;;;;;5126006;27;20050;-47
2022/10/27 11:12:27;;;;;;;9.25;3.20;;;17.70;99.90;;;;;;5137060;27;20102;-54
2022/10/27 11:14:54;;;;;;;5.03;3.25;;;17.80;99.90;;;;;;5137017;27;20475;-45
2022/10/27 11:17:24;;;;;;;6.63;3.00;;;17.80;99.90;;;;;;5135710;27;20053;-54
2022/10/27 11:19:51;;;;;;;7.65;2.80;;;17.90;99.90;;;;;;5137263;27;20054;-48
2022/10/27 11:22:19;;;;;;;6.90;4.00;;;17.90;99.90;;;;;;5136176;27;20570;-50
2022/10/27 11:25:05;;;;;;;7.15;3.25;;;17.90;99.90;;;;;;5137156;27;20379;-48
2022/10/27 11:28:03;;;;;;;8.13;3.10;;;18.00;99.90;;;;;;5123226;27;20057;-47
2022/10/27 11:30:30;;;;;;;5.68;2.67;;;17.90;99.90;;;;;;5136886;27;20062;-51
2022/10/27 11:33:20;;;;;;;4.78;2.90;;;18.00;99.90;;;;;;5136379;27;20496;-48
2022/10/27 11:36:02;;;;;;;4.80;2.97;;;18.00;99.90;;;;;;5125690;27;20503;-47
2022/10/27 11:38:38;;;;;;;8.05;3.17;;;18.10;99.90;;;;;;5137420;27;20131;-48
2022/10/27 11:41:13;;;;;;;5.60;2.83;;;18.10;99.90;;;;;;5137350;27;20450;-48
2022/10/27 11:44:08;;;;;;;7.30;2.67;;;18.20;99.90;;;;;;5136387;27;20049;-54
2022/10/27 11:47:12;;;;;;;4.13;2.45;;;18.10;99.90;;;;;;5014228;28;20605;-45
2022/10/27 11:49:53;;;;;;;6.20;2.10;;;18.20;99.90;;;;;;4972758;28;20656;-53
2022/10/27 11:52:38;;;;;;;8.40;2.40;;;18.20;99.90;;;;;;4976308;28;20546;-54
2022/10/27 11:55:06;;;;;;;5.97;3.13;;;18.30;99.90;;;;;;4977091;28;20065;-47
2022/10/27 11:57:49;;;;;;;4.40;2.03;;;18.40;99.90;;;;;;4976554;28;20074;-48
2022/10/27 12:00:23;;;;;;;6.28;2.00;;;18.50;99.90;;;;;;4976711;28;20177;-53
2022/10/27 12:03:07;;;;;;;7.97;2.30;;;18.50;99.90;;;;;;4959341;28;20082;-50
2022/10/27 12:05:42;;;;;;;7.47;2.70;;;18.60;99.90;;;;;;4977001;28;20058;-52
2022/10/27 12:08:26;;;;;;;7.63;2.85;;;18.60;99.90;;;;;;4976214;28;20522;-54
2022/10/27 12:11:04;;;;;;;6.35;2.13;;;18.50;99.90;;;;;;4976024;28;20054;-50
2022/10/27 12:13:42;;;;;;;6.28;2.60;;;18.50;99.90;;;;;;4975483;28;20046;-49
2022/10/27 12:16:19;;;;;;;4.05;2.13;;;18.60;99.90;;;;;;4975620;28;20046;-51
2022/10/27 12:18:54;;;;;;;7.13;2.40;;;18.50;99.90;;;;;;4976822;28;20104;-52
2022/10/27 12:21:24;;;;;;;6.10;2.65;;;18.40;99.90;;;;;;4976996;28;20087;-48
2022/10/27 12:24:05;;;;;;;4.20;2.10;;;18.40;99.90;;;;;;5024826;28;20079;-54
2022/10/27 12:26:45;;;;;;;5.10;1.95;;;18.40;99.90;;;;;;5139962;27;20051;-54
2022/10/27 12:29:12;;;;;;;7.28;2.85;;;18.40;99.90;;;;;;5127358;27;20454;-51
2022/10/27 12:31:45;;;;;;;6.57;2.55;;;18.40;99.90;;;;;;5139469;27;20051;-50
2022/10/27 12:34:13;;;;;;;;;;;18.40;99.90;;;;;;5122739;27;20462;-54
2022/10/27 12:37:12;;;;;;;4.22;2.30;;;18.40;99.90;;;;;;5140155;27;19927;-55
2022/10/27 12:39:49;;;;;;;4.75;2.10;;;18.50;99.90;;;;;;5035665;28;20093;-53
2022/10/27 12:42:27;;;;;;;5.38;2.30;;;18.50;99.90;;;;;;5035438;28;20057;-51
2022/10/27 12:45:13;;;;;;;7.28;2.50;;;18.40;99.90;;;;;;5035582;28;20114;-47
2022/10/27 12:47:39;;;;;;;7.95;2.38;;;18.50;99.90;;;;;;5035106;28;20088;-49
2022/10/27 12:50:16;;;;;;;5.10;2.03;;;18.50;99.90;;;;;;5035958;28;20192;-54
2022/10/27 12:52:57;;;;;;;3.15;1.75;;;18.50;99.90;;;;;;5018938;28;20319;-46